sensor_id;sensor_type;location;lat;lon;timestamp;temperature;humidity
5304;DHT22;2674;49.722;10.892;2024-01-30T00:02:08;1.70;99.90
5304;DHT22;2674;49.722;10.892;2024-01-30T00:04:34;1.70;99.90
5304;DHT22;2674;49.722;10.892;2024-01-30T00:07:00;1.70;99.90
5304;DHT22;2674;49.722;10.892;2024-01-30T00:09:25;1.70;99.90
5304;DHT22;2674;49.722;10.892;2024-01-30T00:11:51;1.60;99.90
5304;DHT22;2674;49.722;10.892;2024-01-30T00:14:17;1.50;99.90
5304;DHT22;2674;49.722;10.892;2024-01-30T00:16:43;1.50;99.90
5304;DHT22;2674;49.722;10.892;2024-01-30T00:19:09;1.50;99.90
5304;DHT22;2674;49.722;10.892;2024-01-30T00:21:34;1.40;99.90
5304;DHT22;2674;49.722;10.892;2024-01-30T00:24:00;1.30;99.90
5304;DHT22;2674;49.722;10.892;2024-01-30T00:26:26;1.30;99.90
5304;DHT22;2674;49.722;10.892;2024-01-30T00:28:52;1.20;99.90
5304;DHT22;2674;49.722;10.892;2024-01-30T00:31:18;1.10;99.90
5304;DHT22;2674;49.722;10.892;2024-01-30T00:33:43;1.10;99.90
5304;DHT22;2674;49.722;10.892;2024-01-30T00:36:10;1.00;99.90
5304;DHT22;2674;49.722;10.892;2024-01-30T00:38:36;1.00;99.90
5304;DHT22;2674;49.722;10.892;2024-01-30T00:41:03;1.00;99.90
5304;DHT22;2674;49.722;10.892;2024-01-30T00:43:28;0.90;99.90
5304;DHT22;2674;49.722;10.892;2024-01-30T00:45:55;0.90;99.90
5304;DHT22;2674;49.722;10.892;2024-01-30T00:48:21;0.90;99.90
5304;DHT22;2674;49.722;10.892;2024-01-30T00:50:47;0.90;99.90
5304;DHT22;2674;49.722;10.892;2024-01-30T00:53:12;0.80;99.90
5304;DHT22;2674;49.722;10.892;2024-01-30T00:55:38;0.80;99.90
5304;DHT22;2674;49.722;10.892;2024-01-30T00:58:05;0.80;99.90
5304;DHT22;2674;49.722;10.892;2024-01-30T01:00:32;0.80;99.90
5304;DHT22;2674;49.722;10.892;2024-01-30T01:03:01;0.80;99.90
5304;DHT22;2674;49.722;10.892;2024-01-30T01:05:27;0.70;99.90
5304;DHT22;2674;49.722;10.892;2024-01-30T01:07:53;0.70;99.90
5304;DHT22;2674;49.722;10.892;2024-01-30T01:10:19;0.60;99.90
5304;DHT22;2674;49.722;10.892;2024-01-30T01:12:45;0.60;99.90
5304;DHT22;2674;49.722;10.892;2024-01-30T01:15:11;0.60;99.90
5304;DHT22;2674;49.722;10.892;2024-01-30T01:17:41;0.60;99.90
5304;DHT22;2674;49.722;10.892;2024-01-30T01:20:07;0.50;99.90
5304;DHT22;2674;49.722;10.892;2024-01-30T01:22:34;0.40;99.90
5304;DHT22;2674;49.722;10.892;2024-01-30T01:25:00;0.40;99.90
5304;DHT22;2674;49.722;10.892;2024-01-30T01:27:26;0.30;99.90
5304;DHT22;2674;49.722;10.892;2024-01-30T01:29:53;0.30;99.90
5304;DHT22;2674;49.722;10.892;2024-01-30T01:32:19;0.20;99.90
5304;DHT22;2674;49.722;10.892;2024-01-30T01:34:44;0.20;99.90
5304;DHT22;2674;49.722;10.892;2024-01-30T01:37:10;0.30;99.90
5304;DHT22;2674;49.722;10.892;2024-01-30T01:39:36;0.30;99.90
5304;DHT22;2674;49.722;10.892;2024-01-30T01:42:02;0.30;99.90
5304;DHT22;2674;49.722;10.892;2024-01-30T01:44:28;0.30;99.90
5304;DHT22;2674;49.722;10.892;2024-01-30T01:46:54;0.40;99.90
5304;DHT22;2674;49.722;10.892;2024-01-30T01:49:22;0.40;99.90
5304;DHT22;2674;49.722;10.892;2024-01-30T01:51:50;0.30;99.90
5304;DHT22;2674;49.722;10.892;2024-01-30T01:54:17;0.30;99.90
5304;DHT22;2674;49.722;10.892;2024-01-30T01:56:42;0.30;99.90
5304;DHT22;2674;49.722;10.892;2024-01-30T01:59:09;0.30;99.90
5304;DHT22;2674;49.722;10.892;2024-01-30T02:01:36;0.20;99.90
5304;DHT22;2674;49.722;10.892;2024-01-30T02:04:02;0.20;99.90
5304;DHT22;2674;49.722;10.892;2024-01-30T02:06:28;0.20;99.90
5304;DHT22;2674;49.722;10.892;2024-01-30T02:08:54;0.10;99.90
5304;DHT22;2674;49.722;10.892;2024-01-30T02:11:21;0.10;99.90
5304;DHT22;2674;49.722;10.892;2024-01-30T02:13:48;0.10;99.90
5304;DHT22;2674;49.722;10.892;2024-01-30T02:16:13;0.10;99.90
5304;DHT22;2674;49.722;10.892;2024-01-30T02:18:39;0.10;99.90
5304;DHT22;2674;49.722;10.892;2024-01-30T02:21:11;0.10;99.90
5304;DHT22;2674;49.722;10.892;2024-01-30T02:23:36;0.00;99.90
5304;DHT22;2674;49.722;10.892;2024-01-30T02:26:03;0.00;99.90
5304;DHT22;2674;49.722;10.892;2024-01-30T02:28:29;0.00;99.90
5304;DHT22;2674;49.722;10.892;2024-01-30T02:30:55;0.00;99.90
5304;DHT22;2674;49.722;10.892;2024-01-30T02:33:21;-0.10;99.90
5304;DHT22;2674;49.722;10.892;2024-01-30T02:35:49;-0.10;99.90
5304;DHT22;2674;49.722;10.892;2024-01-30T02:38:18;-0.10;99.90
5304;DHT22;2674;49.722;10.892;2024-01-30T02:40:44;-0.20;99.90
5304;DHT22;2674;49.722;10.892;2024-01-30T02:43:09;-0.10;99.90
5304;DHT22;2674;49.722;10.892;2024-01-30T02:45:35;-0.20;99.90
5304;DHT22;2674;49.722;10.892;2024-01-30T02:48:01;-0.20;99.90
5304;DHT22;2674;49.722;10.892;2024-01-30T02:50:27;-0.20;99.90
5304;DHT22;2674;49.722;10.892;2024-01-30T02:52:53;-0.20;99.90
5304;DHT22;2674;49.722;10.892;2024-01-30T02:55:19;-0.20;99.90
5304;DHT22;2674;49.722;10.892;2024-01-30T02:57:45;-0.20;99.90
5304;DHT22;2674;49.722;10.892;2024-01-30T03:00:11;-0.20;99.90
5304;DHT22;2674;49.722;10.892;2024-01-30T03:02:37;-0.20;99.90
5304;DHT22;2674;49.722;10.892;2024-01-30T03:05:04;-0.20;99.90
5304;DHT22;2674;49.722;10.892;2024-01-30T03:07:30;-0.20;99.90
5304;DHT22;2674;49.722;10.892;2024-01-30T03:09:56;-0.20;99.90
5304;DHT22;2674;49.722;10.892;2024-01-30T03:12:22;-0.20;99.90
5304;DHT22;2674;49.722;10.892;2024-01-30T03:14:48;-0.10;99.90
5304;DHT22;2674;49.722;10.892;2024-01-30T03:17:15;-0.10;99.90
5304;DHT22;2674;49.722;10.892;2024-01-30T03:19:40;-0.10;99.90
5304;DHT22;2674;49.722;10.892;2024-01-30T03:22:06;-0.10;99.90
5304;DHT22;2674;49.722;10.892;2024-01-30T03:24:32;-0.10;99.90
5304;DHT22;2674;49.722;10.892;2024-01-30T03:26:58;-0.10;99.90
5304;DHT22;2674;49.722;10.892;2024-01-30T03:29:24;-0.10;99.90
5304;DHT22;2674;49.722;10.892;2024-01-30T03:31:50;-0.10;99.90
5304;DHT22;2674;49.722;10.892;2024-01-30T03:34:16;-0.10;99.90
5304;DHT22;2674;49.722;10.892;2024-01-30T03:36:41;-0.10;99.90
5304;DHT22;2674;49.722;10.892;2024-01-30T03:39:07;-0.10;99.90
5304;DHT22;2674;49.722;10.892;2024-01-30T03:41:33;-0.10;99.90
5304;DHT22;2674;49.722;10.892;2024-01-30T03:43:59;0.00;99.90
5304;DHT22;2674;49.722;10.892;2024-01-30T03:46:25;-0.10;99.90
5304;DHT22;2674;49.722;10.892;2024-01-30T03:48:51;-0.10;99.90
5304;DHT22;2674;49.722;10.892;2024-01-30T03:51:16;-0.10;99.90
5304;DHT22;2674;49.722;10.892;2024-01-30T03:53:42;-0.10;99.90
5304;DHT22;2674;49.722;10.892;2024-01-30T03:56:09;-0.10;99.90
5304;DHT22;2674;49.722;10.892;2024-01-30T03:58:35;-0.10;99.90
5304;DHT22;2674;49.722;10.892;2024-01-30T04:01:01;-0.10;99.90
5304;DHT22;2674;49.722;10.892;2024-01-30T04:03:27;-0.10;99.90
5304;DHT22;2674;49.722;10.892;2024-01-30T04:05:53;0.00;99.90
5304;DHT22;2674;49.722;10.892;2024-01-30T04:08:19;0.00;99.90
5304;DHT22;2674;49.722;10.892;2024-01-30T04:10:45;0.00;99.90
5304;DHT22;2674;49.722;10.892;2024-01-30T04:13:11;-0.10;99.90
5304;DHT22;2674;49.722;10.892;2024-01-30T04:15:37;0.00;99.90
5304;DHT22;2674;49.722;10.892;2024-01-30T04:18:03;0.00;99.90
5304;DHT22;2674;49.722;10.892;2024-01-30T04:20:29;0.10;99.90
5304;DHT22;2674;49.722;10.892;2024-01-30T04:22:55;0.10;99.90
5304;DHT22;2674;49.722;10.892;2024-01-30T04:25:21;0.10;99.90
5304;DHT22;2674;49.722;10.892;2024-01-30T04:27:47;0.10;99.90
5304;DHT22;2674;49.722;10.892;2024-01-30T04:30:13;0.10;99.90
5304;DHT22;2674;49.722;10.892;2024-01-30T04:32:39;0.10;99.90
5304;DHT22;2674;49.722;10.892;2024-01-30T04:35:05;0.10;99.90
5304;DHT22;2674;49.722;10.892;2024-01-30T04:37:31;0.10;99.90
5304;DHT22;2674;49.722;10.892;2024-01-30T04:39:57;0.10;99.90
5304;DHT22;2674;49.722;10.892;2024-01-30T04:42:23;0.10;99.90
5304;DHT22;2674;49.722;10.892;2024-01-30T04:44:49;0.10;99.90
5304;DHT22;2674;49.722;10.892;2024-01-30T04:47:15;0.10;99.90
5304;DHT22;2674;49.722;10.892;2024-01-30T04:49:41;0.10;99.90
5304;DHT22;2674;49.722;10.892;2024-01-30T04:52:08;0.10;99.90
5304;DHT22;2674;49.722;10.892;2024-01-30T04:54:34;0.20;99.90
5304;DHT22;2674;49.722;10.892;2024-01-30T04:57:01;0.20;99.90
5304;DHT22;2674;49.722;10.892;2024-01-30T04:59:26;0.20;99.90
5304;DHT22;2674;49.722;10.892;2024-01-30T05:01:52;0.20;99.90
5304;DHT22;2674;49.722;10.892;2024-01-30T05:04:18;0.20;99.90
5304;DHT22;2674;49.722;10.892;2024-01-30T05:06:44;0.20;99.90
5304;DHT22;2674;49.722;10.892;2024-01-30T05:09:10;0.20;99.90
5304;DHT22;2674;49.722;10.892;2024-01-30T05:11:39;0.30;99.90
5304;DHT22;2674;49.722;10.892;2024-01-30T05:14:06;0.30;99.90
5304;DHT22;2674;49.722;10.892;2024-01-30T05:16:32;0.30;99.90
5304;DHT22;2674;49.722;10.892;2024-01-30T05:18:58;0.30;99.90
5304;DHT22;2674;49.722;10.892;2024-01-30T05:21:25;0.30;99.90
5304;DHT22;2674;49.722;10.892;2024-01-30T05:23:50;0.30;99.90
5304;DHT22;2674;49.722;10.892;2024-01-30T05:26:16;0.30;99.90
5304;DHT22;2674;49.722;10.892;2024-01-30T05:28:42;0.20;99.90
5304;DHT22;2674;49.722;10.892;2024-01-30T05:31:10;0.20;99.90
5304;DHT22;2674;49.722;10.892;2024-01-30T05:33:36;0.20;99.90
5304;DHT22;2674;49.722;10.892;2024-01-30T05:36:02;0.20;99.90
5304;DHT22;2674;49.722;10.892;2024-01-30T05:38:28;0.20;99.90
5304;DHT22;2674;49.722;10.892;2024-01-30T05:40:54;0.20;99.90
5304;DHT22;2674;49.722;10.892;2024-01-30T05:43:20;0.20;99.90
5304;DHT22;2674;49.722;10.892;2024-01-30T05:45:46;0.20;99.90
5304;DHT22;2674;49.722;10.892;2024-01-30T05:48:12;0.30;99.90
5304;DHT22;2674;49.722;10.892;2024-01-30T05:50:38;0.30;99.90
5304;DHT22;2674;49.722;10.892;2024-01-30T05:53:03;0.30;99.90
5304;DHT22;2674;49.722;10.892;2024-01-30T05:55:29;0.30;99.90
5304;DHT22;2674;49.722;10.892;2024-01-30T05:57:55;0.30;99.90
5304;DHT22;2674;49.722;10.892;2024-01-30T06:00:21;0.30;99.90
5304;DHT22;2674;49.722;10.892;2024-01-30T06:02:47;0.40;99.90
5304;DHT22;2674;49.722;10.892;2024-01-30T06:05:12;0.40;99.90
5304;DHT22;2674;49.722;10.892;2024-01-30T06:07:38;0.40;99.90
5304;DHT22;2674;49.722;10.892;2024-01-30T06:10:04;0.40;99.90
5304;DHT22;2674;49.722;10.892;2024-01-30T06:12:30;0.50;99.90
5304;DHT22;2674;49.722;10.892;2024-01-30T06:14:56;0.50;99.90
5304;DHT22;2674;49.722;10.892;2024-01-30T06:17:23;0.50;99.90
5304;DHT22;2674;49.722;10.892;2024-01-30T06:19:49;0.50;99.90
5304;DHT22;2674;49.722;10.892;2024-01-30T06:22:16;0.50;99.90
5304;DHT22;2674;49.722;10.892;2024-01-30T06:24:42;0.50;99.90
5304;DHT22;2674;49.722;10.892;2024-01-30T06:27:10;0.50;99.90
5304;DHT22;2674;49.722;10.892;2024-01-30T06:29:36;0.50;99.90
5304;DHT22;2674;49.722;10.892;2024-01-30T06:32:02;0.50;99.90
5304;DHT22;2674;49.722;10.892;2024-01-30T06:34:28;0.50;99.90
5304;DHT22;2674;49.722;10.892;2024-01-30T06:36:53;0.40;99.90
5304;DHT22;2674;49.722;10.892;2024-01-30T06:39:19;0.40;99.90
5304;DHT22;2674;49.722;10.892;2024-01-30T06:41:45;0.50;99.90
5304;DHT22;2674;49.722;10.892;2024-01-30T06:44:12;0.50;99.90
5304;DHT22;2674;49.722;10.892;2024-01-30T06:46:38;0.50;99.90
5304;DHT22;2674;49.722;10.892;2024-01-30T06:49:04;0.50;99.90
5304;DHT22;2674;49.722;10.892;2024-01-30T06:51:31;0.50;99.90
5304;DHT22;2674;49.722;10.892;2024-01-30T06:53:57;0.50;99.90
5304;DHT22;2674;49.722;10.892;2024-01-30T06:56:22;0.50;99.90
5304;DHT22;2674;49.722;10.892;2024-01-30T06:58:49;0.60;99.90
5304;DHT22;2674;49.722;10.892;2024-01-30T07:01:16;0.60;99.90
5304;DHT22;2674;49.722;10.892;2024-01-30T07:03:42;0.60;99.90
5304;DHT22;2674;49.722;10.892;2024-01-30T07:06:08;0.60;99.90
5304;DHT22;2674;49.722;10.892;2024-01-30T07:08:34;0.70;99.90
5304;DHT22;2674;49.722;10.892;2024-01-30T07:11:00;0.70;99.90
5304;DHT22;2674;49.722;10.892;2024-01-30T07:13:27;0.70;99.90
5304;DHT22;2674;49.722;10.892;2024-01-30T07:15:53;0.70;99.90
5304;DHT22;2674;49.722;10.892;2024-01-30T07:18:19;0.70;99.90
5304;DHT22;2674;49.722;10.892;2024-01-30T07:20:45;0.70;99.90
5304;DHT22;2674;49.722;10.892;2024-01-30T07:23:13;0.80;99.90
5304;DHT22;2674;49.722;10.892;2024-01-30T07:25:41;0.80;99.90
5304;DHT22;2674;49.722;10.892;2024-01-30T07:28:08;0.80;99.90
5304;DHT22;2674;49.722;10.892;2024-01-30T07:30:37;0.80;99.90
5304;DHT22;2674;49.722;10.892;2024-01-30T07:33:03;0.80;99.90
5304;DHT22;2674;49.722;10.892;2024-01-30T07:35:29;0.90;99.90
5304;DHT22;2674;49.722;10.892;2024-01-30T07:37:55;0.90;99.90
5304;DHT22;2674;49.722;10.892;2024-01-30T07:40:22;0.90;99.90
5304;DHT22;2674;49.722;10.892;2024-01-30T07:42:48;0.90;99.90
5304;DHT22;2674;49.722;10.892;2024-01-30T07:45:14;1.00;99.90
5304;DHT22;2674;49.722;10.892;2024-01-30T07:47:40;1.20;99.90
5304;DHT22;2674;49.722;10.892;2024-01-30T07:50:08;1.30;99.90
5304;DHT22;2674;49.722;10.892;2024-01-30T07:52:34;1.80;99.90
5304;DHT22;2674;49.722;10.892;2024-01-30T07:55:00;2.10;99.90
5304;DHT22;2674;49.722;10.892;2024-01-30T07:57:26;2.60;99.90
5304;DHT22;2674;49.722;10.892;2024-01-30T07:59:52;2.80;99.90
5304;DHT22;2674;49.722;10.892;2024-01-30T08:02:18;3.10;99.90
5304;DHT22;2674;49.722;10.892;2024-01-30T08:04:44;3.20;99.90
5304;DHT22;2674;49.722;10.892;2024-01-30T08:07:14;3.40;99.90
5304;DHT22;2674;49.722;10.892;2024-01-30T08:09:40;3.50;99.90
5304;DHT22;2674;49.722;10.892;2024-01-30T08:12:06;3.50;99.90
5304;DHT22;2674;49.722;10.892;2024-01-30T08:14:31;3.40;99.90
5304;DHT22;2674;49.722;10.892;2024-01-30T08:16:57;3.20;99.90
5304;DHT22;2674;49.722;10.892;2024-01-30T08:19:23;3.00;99.90
5304;DHT22;2674;49.722;10.892;2024-01-30T08:21:49;3.00;99.90
5304;DHT22;2674;49.722;10.892;2024-01-30T08:24:15;2.90;99.90
5304;DHT22;2674;49.722;10.892;2024-01-30T08:26:41;2.80;99.90
5304;DHT22;2674;49.722;10.892;2024-01-30T08:29:10;2.80;99.90
5304;DHT22;2674;49.722;10.892;2024-01-30T08:31:35;2.80;99.90
5304;DHT22;2674;49.722;10.892;2024-01-30T08:34:01;2.80;99.90
5304;DHT22;2674;49.722;10.892;2024-01-30T08:36:27;2.80;99.90
5304;DHT22;2674;49.722;10.892;2024-01-30T08:38:53;2.80;99.90
5304;DHT22;2674;49.722;10.892;2024-01-30T08:41:19;2.80;99.90
5304;DHT22;2674;49.722;10.892;2024-01-30T08:43:45;2.90;99.90
5304;DHT22;2674;49.722;10.892;2024-01-30T08:46:11;2.90;99.90
5304;DHT22;2674;49.722;10.892;2024-01-30T08:48:37;2.90;99.90
5304;DHT22;2674;49.722;10.892;2024-01-30T08:51:03;2.90;99.90
5304;DHT22;2674;49.722;10.892;2024-01-30T08:53:29;3.00;99.90
5304;DHT22;2674;49.722;10.892;2024-01-30T08:55:55;3.00;99.90
5304;DHT22;2674;49.722;10.892;2024-01-30T08:58:21;3.10;99.90
5304;DHT22;2674;49.722;10.892;2024-01-30T09:00:46;3.10;99.90
5304;DHT22;2674;49.722;10.892;2024-01-30T09:03:12;3.10;99.90
5304;DHT22;2674;49.722;10.892;2024-01-30T09:05:38;3.20;99.90
5304;DHT22;2674;49.722;10.892;2024-01-30T09:08:04;3.20;99.90
5304;DHT22;2674;49.722;10.892;2024-01-30T09:10:30;3.30;99.90
5304;DHT22;2674;49.722;10.892;2024-01-30T09:12:56;3.30;99.90
5304;DHT22;2674;49.722;10.892;2024-01-30T09:15:22;3.40;99.90
5304;DHT22;2674;49.722;10.892;2024-01-30T09:17:47;3.40;99.90
5304;DHT22;2674;49.722;10.892;2024-01-30T09:20:13;3.50;99.90
5304;DHT22;2674;49.722;10.892;2024-01-30T09:22:39;3.50;99.90
5304;DHT22;2674;49.722;10.892;2024-01-30T09:25:05;3.60;99.90
5304;DHT22;2674;49.722;10.892;2024-01-30T09:27:31;3.60;99.90
5304;DHT22;2674;49.722;10.892;2024-01-30T09:29:57;3.70;99.90
5304;DHT22;2674;49.722;10.892;2024-01-30T09:32:22;3.70;99.90
5304;DHT22;2674;49.722;10.892;2024-01-30T09:34:48;3.80;99.90
5304;DHT22;2674;49.722;10.892;2024-01-30T09:37:14;3.80;99.90
5304;DHT22;2674;49.722;10.892;2024-01-30T09:39:41;3.90;99.90
5304;DHT22;2674;49.722;10.892;2024-01-30T09:44:51;3.90;99.90
5304;DHT22;2674;49.722;10.892;2024-01-30T09:47:19;4.00;99.90
5304;DHT22;2674;49.722;10.892;2024-01-30T09:49:45;4.00;99.90
5304;DHT22;2674;49.722;10.892;2024-01-30T09:52:11;4.00;99.90
5304;DHT22;2674;49.722;10.892;2024-01-30T09:54:38;4.00;99.90
5304;DHT22;2674;49.722;10.892;2024-01-30T09:57:04;4.10;99.90
5304;DHT22;2674;49.722;10.892;2024-01-30T09:59:31;4.10;99.90
5304;DHT22;2674;49.722;10.892;2024-01-30T10:01:57;4.10;99.90
5304;DHT22;2674;49.722;10.892;2024-01-30T10:04:23;4.20;99.90
5304;DHT22;2674;49.722;10.892;2024-01-30T10:06:50;4.20;99.90
5304;DHT22;2674;49.722;10.892;2024-01-30T10:09:16;4.30;99.90
5304;DHT22;2674;49.722;10.892;2024-01-30T10:11:42;4.30;99.90
5304;DHT22;2674;49.722;10.892;2024-01-30T10:14:08;4.30;99.90
5304;DHT22;2674;49.722;10.892;2024-01-30T10:16:37;4.30;99.90
5304;DHT22;2674;49.722;10.892;2024-01-30T10:19:03;4.40;99.90
5304;DHT22;2674;49.722;10.892;2024-01-30T10:21:30;4.50;99.90
5304;DHT22;2674;49.722;10.892;2024-01-30T10:23:56;4.60;99.90
5304;DHT22;2674;49.722;10.892;2024-01-30T10:26:22;4.60;99.90
5304;DHT22;2674;49.722;10.892;2024-01-30T10:28:48;4.60;99.90
5304;DHT22;2674;49.722;10.892;2024-01-30T10:31:18;4.70;99.90
5304;DHT22;2674;49.722;10.892;2024-01-30T10:33:44;4.70;99.90
5304;DHT22;2674;49.722;10.892;2024-01-30T10:36:13;4.80;99.90
5304;DHT22;2674;49.722;10.892;2024-01-30T10:38:42;4.80;99.90
5304;DHT22;2674;49.722;10.892;2024-01-30T10:41:10;4.90;99.90
5304;DHT22;2674;49.722;10.892;2024-01-30T10:43:41;5.00;99.90
5304;DHT22;2674;49.722;10.892;2024-01-30T10:46:11;5.10;99.90
5304;DHT22;2674;49.722;10.892;2024-01-30T10:48:50;5.10;99.90
5304;DHT22;2674;49.722;10.892;2024-01-30T10:51:16;5.20;99.90
5304;DHT22;2674;49.722;10.892;2024-01-30T10:53:46;5.20;99.90
5304;DHT22;2674;49.722;10.892;2024-01-30T10:56:14;5.30;99.90
5304;DHT22;2674;49.722;10.892;2024-01-30T10:58:40;5.30;99.90
5304;DHT22;2674;49.722;10.892;2024-01-30T11:01:07;5.40;99.90
5304;DHT22;2674;49.722;10.892;2024-01-30T11:03:34;5.40;99.90
5304;DHT22;2674;49.722;10.892;2024-01-30T11:06:02;5.50;99.90
5304;DHT22;2674;49.722;10.892;2024-01-30T11:08:31;5.60;99.90
5304;DHT22;2674;49.722;10.892;2024-01-30T11:10:58;5.60;99.90
5304;DHT22;2674;49.722;10.892;2024-01-30T11:13:31;5.60;99.90
5304;DHT22;2674;49.722;10.892;2024-01-30T11:16:06;5.70;99.90
5304;DHT22;2674;49.722;10.892;2024-01-30T11:18:35;5.70;99.90
5304;DHT22;2674;49.722;10.892;2024-01-30T11:21:01;5.70;99.90
5304;DHT22;2674;49.722;10.892;2024-01-30T11:23:32;5.80;99.90
5304;DHT22;2674;49.722;10.892;2024-01-30T11:25:58;5.80;99.90
5304;DHT22;2674;49.722;10.892;2024-01-30T11:28:24;5.90;99.90
5304;DHT22;2674;49.722;10.892;2024-01-30T11:31:03;5.90;99.90
5304;DHT22;2674;49.722;10.892;2024-01-30T11:33:30;5.90;99.90
5304;DHT22;2674;49.722;10.892;2024-01-30T11:35:57;6.00;99.90
5304;DHT22;2674;49.722;10.892;2024-01-30T11:38:26;6.10;99.90
5304;DHT22;2674;49.722;10.892;2024-01-30T11:40:54;6.10;99.90
5304;DHT22;2674;49.722;10.892;2024-01-30T11:43:22;6.20;99.90
5304;DHT22;2674;49.722;10.892;2024-01-30T11:45:48;6.30;99.90
5304;DHT22;2674;49.722;10.892;2024-01-30T11:48:14;6.30;99.90
5304;DHT22;2674;49.722;10.892;2024-01-30T11:50:40;6.40;99.90
5304;DHT22;2674;49.722;10.892;2024-01-30T11:53:06;6.50;99.90
5304;DHT22;2674;49.722;10.892;2024-01-30T11:55:33;6.50;99.90
5304;DHT22;2674;49.722;10.892;2024-01-30T11:58:00;6.50;99.90
5304;DHT22;2674;49.722;10.892;2024-01-30T12:00:26;6.60;99.30
5304;DHT22;2674;49.722;10.892;2024-01-30T12:02:53;6.60;97.00
5304;DHT22;2674;49.722;10.892;2024-01-30T12:05:28;6.70;95.60
5304;DHT22;2674;49.722;10.892;2024-01-30T12:07:54;6.70;92.60
5304;DHT22;2674;49.722;10.892;2024-01-30T12:10:21;6.70;94.10
5304;DHT22;2674;49.722;10.892;2024-01-30T12:12:49;6.70;93.60
5304;DHT22;2674;49.722;10.892;2024-01-30T12:15:15;6.70;96.70
5304;DHT22;2674;49.722;10.892;2024-01-30T12:17:42;6.80;96.60
5304;DHT22;2674;49.722;10.892;2024-01-30T12:20:15;6.80;94.90
5304;DHT22;2674;49.722;10.892;2024-01-30T12:22:43;6.80;93.80
5304;DHT22;2674;49.722;10.892;2024-01-30T12:25:14;6.90;91.10
5304;DHT22;2674;49.722;10.892;2024-01-30T12:27:43;6.90;92.20
5304;DHT22;2674;49.722;10.892;2024-01-30T12:30:10;7.00;91.70
5304;DHT22;2674;49.722;10.892;2024-01-30T12:32:44;7.10;90.10
5304;DHT22;2674;49.722;10.892;2024-01-30T12:35:11;7.10;91.40
5304;DHT22;2674;49.722;10.892;2024-01-30T12:37:38;7.20;84.30
5304;DHT22;2674;49.722;10.892;2024-01-30T12:40:04;7.20;84.20
5304;DHT22;2674;49.722;10.892;2024-01-30T12:42:31;7.30;81.40
5304;DHT22;2674;49.722;10.892;2024-01-30T12:44:58;7.30;71.40
5304;DHT22;2674;49.722;10.892;2024-01-30T12:47:24;7.30;71.90
5304;DHT22;2674;49.722;10.892;2024-01-30T12:49:50;7.40;67.60
5304;DHT22;2674;49.722;10.892;2024-01-30T12:52:20;7.50;62.70
5304;DHT22;2674;49.722;10.892;2024-01-30T12:54:47;7.50;61.40
5304;DHT22;2674;49.722;10.892;2024-01-30T12:57:13;7.50;57.30
5304;DHT22;2674;49.722;10.892;2024-01-30T12:59:39;7.60;55.80
5304;DHT22;2674;49.722;10.892;2024-01-30T13:02:05;7.70;59.30
5304;DHT22;2674;49.722;10.892;2024-01-30T13:04:31;7.70;56.00
5304;DHT22;2674;49.722;10.892;2024-01-30T13:06:58;7.80;52.40
5304;DHT22;2674;49.722;10.892;2024-01-30T13:09:24;7.80;46.20
5304;DHT22;2674;49.722;10.892;2024-01-30T13:11:50;7.80;44.10
5304;DHT22;2674;49.722;10.892;2024-01-30T13:14:17;7.80;46.80
5304;DHT22;2674;49.722;10.892;2024-01-30T13:16:43;7.80;45.00
5304;DHT22;2674;49.722;10.892;2024-01-30T13:19:09;7.80;48.00
5304;DHT22;2674;49.722;10.892;2024-01-30T13:21:35;7.80;43.50
5304;DHT22;2674;49.722;10.892;2024-01-30T13:24:00;7.80;46.40
5304;DHT22;2674;49.722;10.892;2024-01-30T13:26:26;7.90;44.20
5304;DHT22;2674;49.722;10.892;2024-01-30T13:28:52;7.90;41.90
5304;DHT22;2674;49.722;10.892;2024-01-30T13:31:18;7.90;43.00
5304;DHT22;2674;49.722;10.892;2024-01-30T13:33:45;7.90;47.60
5304;DHT22;2674;49.722;10.892;2024-01-30T13:36:11;8.00;43.40
5304;DHT22;2674;49.722;10.892;2024-01-30T13:38:37;8.00;43.00
5304;DHT22;2674;49.722;10.892;2024-01-30T13:41:04;8.00;44.60
5304;DHT22;2674;49.722;10.892;2024-01-30T13:43:30;8.00;48.60
5304;DHT22;2674;49.722;10.892;2024-01-30T13:45:56;8.00;51.90
5304;DHT22;2674;49.722;10.892;2024-01-30T13:48:22;8.00;53.60
5304;DHT22;2674;49.722;10.892;2024-01-30T13:50:48;8.00;53.80
5304;DHT22;2674;49.722;10.892;2024-01-30T13:53:14;7.90;55.10
5304;DHT22;2674;49.722;10.892;2024-01-30T13:55:40;7.90;46.90
5304;DHT22;2674;49.722;10.892;2024-01-30T13:58:06;7.90;46.90
5304;DHT22;2674;49.722;10.892;2024-01-30T14:00:33;7.90;47.90
5304;DHT22;2674;49.722;10.892;2024-01-30T14:02:59;7.90;48.40
5304;DHT22;2674;49.722;10.892;2024-01-30T14:05:26;7.90;50.00
5304;DHT22;2674;49.722;10.892;2024-01-30T14:07:57;7.80;54.60
5304;DHT22;2674;49.722;10.892;2024-01-30T14:10:24;7.80;52.60
5304;DHT22;2674;49.722;10.892;2024-01-30T14:12:51;7.80;57.40
5304;DHT22;2674;49.722;10.892;2024-01-30T14:15:16;7.80;53.10
5304;DHT22;2674;49.722;10.892;2024-01-30T14:17:45;7.80;55.40
5304;DHT22;2674;49.722;10.892;2024-01-30T14:20:14;7.90;52.00
5304;DHT22;2674;49.722;10.892;2024-01-30T14:22:42;7.90;51.40
5304;DHT22;2674;49.722;10.892;2024-01-30T14:25:08;7.90;54.80
5304;DHT22;2674;49.722;10.892;2024-01-30T14:27:35;7.90;51.70
5304;DHT22;2674;49.722;10.892;2024-01-30T14:30:02;7.90;52.50
5304;DHT22;2674;49.722;10.892;2024-01-30T14:32:28;7.90;53.20
5304;DHT22;2674;49.722;10.892;2024-01-30T14:34:54;8.00;53.70
5304;DHT22;2674;49.722;10.892;2024-01-30T14:37:21;8.00;55.50
5304;DHT22;2674;49.722;10.892;2024-01-30T14:39:47;8.00;57.20
5304;DHT22;2674;49.722;10.892;2024-01-30T14:42:14;8.00;52.20
5304;DHT22;2674;49.722;10.892;2024-01-30T14:44:41;8.00;54.80
5304;DHT22;2674;49.722;10.892;2024-01-30T14:47:06;7.90;55.50
5304;DHT22;2674;49.722;10.892;2024-01-30T14:49:34;8.00;53.10
5304;DHT22;2674;49.722;10.892;2024-01-30T14:52:00;7.90;54.50
5304;DHT22;2674;49.722;10.892;2024-01-30T14:54:26;7.90;56.70
5304;DHT22;2674;49.722;10.892;2024-01-30T14:56:53;7.90;58.20
5304;DHT22;2674;49.722;10.892;2024-01-30T14:59:19;7.80;57.10
5304;DHT22;2674;49.722;10.892;2024-01-30T15:01:45;7.70;58.50
5304;DHT22;2674;49.722;10.892;2024-01-30T15:04:12;7.70;66.40
5304;DHT22;2674;49.722;10.892;2024-01-30T15:06:38;7.70;73.00
5304;DHT22;2674;49.722;10.892;2024-01-30T15:09:04;7.70;78.50
5304;DHT22;2674;49.722;10.892;2024-01-30T15:11:30;7.70;81.40
5304;DHT22;2674;49.722;10.892;2024-01-30T15:13:58;7.60;87.40
5304;DHT22;2674;49.722;10.892;2024-01-30T15:16:23;7.60;90.90
5304;DHT22;2674;49.722;10.892;2024-01-30T15:18:49;7.50;93.20
5304;DHT22;2674;49.722;10.892;2024-01-30T15:21:15;7.50;99.70
5304;DHT22;2674;49.722;10.892;2024-01-30T15:23:45;7.50;99.60
5304;DHT22;2674;49.722;10.892;2024-01-30T15:26:11;7.50;99.70
5304;DHT22;2674;49.722;10.892;2024-01-30T15:28:38;7.50;99.90
5304;DHT22;2674;49.722;10.892;2024-01-30T15:31:05;7.40;99.90
5304;DHT22;2674;49.722;10.892;2024-01-30T15:33:32;7.40;99.90
5304;DHT22;2674;49.722;10.892;2024-01-30T15:35:59;7.40;99.90
5304;DHT22;2674;49.722;10.892;2024-01-30T15:38:25;7.30;99.90
5304;DHT22;2674;49.722;10.892;2024-01-30T15:40:52;7.30;99.90
5304;DHT22;2674;49.722;10.892;2024-01-30T15:43:18;7.20;99.90
5304;DHT22;2674;49.722;10.892;2024-01-30T15:45:44;7.20;99.90
5304;DHT22;2674;49.722;10.892;2024-01-30T15:48:11;7.10;99.90
5304;DHT22;2674;49.722;10.892;2024-01-30T15:50:37;7.10;99.90
5304;DHT22;2674;49.722;10.892;2024-01-30T15:53:03;7.00;99.90
5304;DHT22;2674;49.722;10.892;2024-01-30T15:55:29;7.00;99.90
5304;DHT22;2674;49.722;10.892;2024-01-30T15:57:55;6.90;99.90